OMAA/AUH METAR and TAF weather

Enter ICAO airport designator
Station Type Date Time Source
OMAA METAR 2020/09/19 18:00 UTC NOAA

OMAA 191800Z 34007KT CAVOK 32/27 Q1002 BECMG 05005KT


Station Type Date Time Source
OMAA Decoded METAR 2020/09/19 18:00 UTC NOAA

Abu Dhabi International Airport, United Arab Emirates (OMAA) 24-26N 054-39E 27M
Sep 19, 2020 - 02:00 PM EDT / 2020.09.19 1800 UTC
Wind: from the NNW (340 degrees) at 8 MPH (7 KT):0
Visibility: greater than 7 mile(s):0
Temperature: 89 F (32 C)
Heat index: 105.6 F (40.9 C):1
Dew Point: 80 F (27 C)
Relative Humidity: 74%
Pressure (altimeter): 29.59 in. Hg (1002 hPa)
ob: OMAA 191800Z 34007KT CAVOK 32/27 Q1002 BECMG 05005KT
cycle: 18

Station Type Date Time Source
OMAA TAF 2020/09/19 18:01 UTC NOAA

TAF OMAA 191700Z 1918/2100 36006KT 8000 NSC
BECMG 1918/1920 07005KT PROB30 2002/2004 3000 BR BKN005
BECMG 2009/2011 34012KT
BECMG 2018/2020 05005KT

Example: see airport list